Terminal Aerodrome Forecast
Issued by NWS

Home | Current Version | Previous Version | Text Only | Print | Product List | Glossary On
Versions: 1 2 3 4 5 6 7 8 9 10 11 12 13 14 15 16 17 18 19 20 21
831
FTUS41 KILN 242320
TAFLCK
TAF
KLCK 242320Z 2500/2524 VRB03KT P6SM SCT150 BKN250
      TEMPO 2509/2512 4SM BR
     FM251300 23005KT P6SM BKN250
     FM251600 26010KT P6SM VCTS BKN040CB
     FM252100 28009KT P6SM SCT050 SCT100=

USA.gov is the U.S. government's official web portal to all federal, state and local government web resources and services.